Time;durP1;ratioP1;P1;durP2;ratioP2;P2;SDS_P1;SDS_P2;PMS_P1;PMS_P2;Temp;Humidity;BMP_temperature;BMP_pressure;BME280_temperature;BME280_humidity;BME280_pressure;Samples;Min_cycle;Max_cycle;Signal;HPM_P1;HPM_P2
2021/06/20 00:00:48;;;;;;;12.07;9.33;;;21.10;99.90;;;;;;4944881;29;20563;-79
2021/06/20 00:03:14;;;;;;;14.93;10.23;;;21.10;99.90;;;;;;4963078;29;20190;-80
2021/06/20 00:05:50;;;;;;;11.67;9.80;;;21.10;99.90;;;;;;4945232;29;20209;-80
2021/06/20 00:08:16;;;;;;;11.70;9.40;;;21.10;99.90;;;;;;4945070;29;20228;-79
2021/06/20 00:10:43;;;;;;;12.23;8.73;;;21.00;99.90;;;;;;4945055;29;20182;-79
2021/06/20 00:13:09;;;;;;;10.23;8.80;;;21.00;99.90;;;;;;4962110;29;20257;-80
2021/06/20 00:15:37;;;;;;;13.57;8.83;;;21.00;99.90;;;;;;4962458;29;20249;-80
2021/06/20 00:18:04;;;;;;;10.93;8.97;;;21.00;99.90;;;;;;4962519;29;20665;-80
2021/06/20 00:20:33;;;;;;;14.73;9.33;;;21.00;99.90;;;;;;4962867;29;20207;-80
2021/06/20 00:22:59;;;;;;;12.17;8.77;;;21.00;99.90;;;;;;4962709;29;20179;-80
2021/06/20 00:25:25;;;;;;;10.07;8.80;;;21.00;99.90;;;;;;4945118;29;20255;-80
2021/06/20 00:27:52;;;;;;;9.50;8.23;;;20.90;99.90;;;;;;4945105;29;20206;-80
2021/06/20 00:30:20;;;;;;;14.07;9.80;;;21.00;99.90;;;;;;4962644;29;20174;-80
2021/06/20 00:32:47;;;;;;;11.33;9.70;;;21.00;99.90;;;;;;4963762;29;20267;-80
2021/06/20 00:35:14;;;;;;;10.47;8.90;;;21.00;99.90;;;;;;4945519;29;20183;-80
2021/06/20 00:37:40;;;;;;;12.83;9.53;;;20.90;99.90;;;;;;4946224;29;20218;-80
2021/06/20 00:40:07;;;;;;;12.97;10.00;;;20.90;99.90;;;;;;4946213;29;20178;-80
2021/06/20 00:42:33;;;;;;;11.87;9.13;;;20.90;99.90;;;;;;4963872;29;20170;-80
2021/06/20 00:44:59;;;;;;;12.40;9.73;;;20.90;99.90;;;;;;4946016;29;20274;-80
2021/06/20 00:47:25;;;;;;;11.20;9.47;;;20.80;99.90;;;;;;4963599;29;20249;-80
2021/06/20 00:49:51;;;;;;;15.13;10.00;;;20.80;99.90;;;;;;4964089;29;20207;-80
2021/06/20 00:52:18;;;;;;;11.40;8.93;;;20.80;99.90;;;;;;4964715;29;20176;-81
2021/06/20 00:54:47;;;;;;;11.43;8.83;;;20.80;99.90;;;;;;4964654;29;20530;-80
2021/06/20 00:57:20;;;;;;;11.43;8.47;;;20.70;99.90;;;;;;4964799;29;20691;-80
2021/06/20 00:59:48;;;;;;;15.20;9.50;;;20.60;99.90;;;;;;4947380;29;20186;-80
2021/06/20 01:02:16;;;;;;;11.87;9.07;;;20.60;99.90;;;;;;4948702;29;20302;-81
2021/06/20 01:04:46;;;;;;;9.80;8.63;;;20.60;99.90;;;;;;4965704;29;20661;-81
2021/06/20 01:07:23;;;;;;;11.80;8.90;;;20.60;99.90;;;;;;4948425;28;20266;-81
2021/06/20 01:09:51;;;;;;;15.30;9.60;;;20.60;99.90;;;;;;4952728;29;20231;-80
2021/06/20 01:12:18;;;;;;;13.10;8.17;;;20.50;99.90;;;;;;4972888;29;20209;-81
2021/06/20 01:14:46;;;;;;;14.37;8.33;;;20.50;99.90;;;;;;4974729;29;20198;-81
2021/06/20 01:17:12;;;;;;;9.70;8.43;;;20.50;99.90;;;;;;4973118;29;20199;-81
2021/06/20 01:19:40;;;;;;;11.23;8.83;;;20.50;99.90;;;;;;4952855;29;20210;-80
2021/06/20 01:22:27;;;;;;;12.40;8.67;;;20.40;99.90;;;;;;4970682;29;20175;-81
2021/06/20 01:24:54;;;;;;;10.23;8.87;;;20.40;99.90;;;;;;4956044;29;20186;-80
2021/06/20 01:27:32;;;;;;;13.93;8.53;;;20.30;99.90;;;;;;4965924;29;20660;-80
2021/06/20 01:29:58;;;;;;;13.80;8.60;;;20.30;99.90;;;;;;4965558;29;20274;-80
2021/06/20 01:32:23;;;;;;;15.23;9.07;;;20.30;99.90;;;;;;4947336;29;20637;-79
2021/06/20 01:34:49;;;;;;;9.70;8.57;;;20.30;99.90;;;;;;4964598;29;20215;-80
2021/06/20 01:37:16;;;;;;;10.80;8.47;;;20.30;99.90;;;;;;4946675;29;20202;-80
2021/06/20 01:39:43;;;;;;;13.33;8.20;;;20.30;99.90;;;;;;4946374;29;20193;-80
2021/06/20 01:42:12;;;;;;;11.53;9.17;;;20.30;99.90;;;;;;4948225;29;20185;-80
2021/06/20 01:44:58;;;;;;;13.27;8.90;;;20.20;99.90;;;;;;4963503;29;20186;-80
2021/06/20 01:47:28;;;;;;;11.53;8.27;;;20.20;99.90;;;;;;4964031;29;20254;-80
2021/06/20 01:49:57;;;;;;;10.80;8.40;;;20.20;99.90;;;;;;4945984;29;20210;-80
2021/06/20 01:52:24;;;;;;;9.70;8.53;;;20.20;99.90;;;;;;4946522;29;20181;-80
2021/06/20 01:54:51;;;;;;;10.37;8.67;;;20.20;99.90;;;;;;4963562;29;20203;-79
2021/06/20 01:57:21;;;;;;;11.23;9.17;;;20.10;99.90;;;;;;4946168;29;20205;-80
2021/06/20 01:59:48;;;;;;;10.17;8.33;;;20.10;99.90;;;;;;4946188;29;20273;-80
2021/06/20 02:02:14;;;;;;;12.90;8.90;;;20.10;99.90;;;;;;4965009;29;20183;-80
2021/06/20 02:04:40;;;;;;;11.83;8.43;;;20.10;99.90;;;;;;4945480;29;20210;-80
2021/06/20 02:07:09;;;;;;;10.90;8.87;;;20.00;99.90;;;;;;4946010;29;20208;-80
2021/06/20 02:09:36;;;;;;;11.87;8.83;;;20.00;99.90;;;;;;4947127;29;20223;-79
2021/06/20 02:12:07;;;;;;;10.57;9.17;;;20.00;99.90;;;;;;4962911;29;20181;-80
2021/06/20 02:14:34;;;;;;;16.07;10.13;;;20.10;99.90;;;;;;4962934;29;20266;-79
2021/06/20 02:17:06;;;;;;;15.20;9.93;;;20.10;99.90;;;;;;4963943;29;20597;-80
2021/06/20 02:19:32;;;;;;;10.80;9.67;;;20.10;99.90;;;;;;4946679;29;20183;-79
2021/06/20 02:21:58;;;;;;;12.03;8.67;;;20.10;99.90;;;;;;4963948;29;20186;-79
2021/06/20 02:24:23;;;;;;;11.33;8.67;;;20.10;99.90;;;;;;4945592;29;20558;-80
2021/06/20 02:26:49;;;;;;;17.87;9.80;;;20.10;99.90;;;;;;4961662;29;20203;-80
2021/06/20 02:29:15;;;;;;;11.30;8.87;;;20.10;99.90;;;;;;4945051;29;20214;-80
2021/06/20 02:31:40;;;;;;;15.13;9.23;;;20.10;99.90;;;;;;4962350;29;20183;-79
2021/06/20 02:34:06;;;;;;;11.10;9.27;;;20.10;99.90;;;;;;4963263;29;20178;-79
2021/06/20 02:36:31;;;;;;;10.80;9.00;;;20.00;99.90;;;;;;4962847;29;20583;-80
2021/06/20 02:38:57;;;;;;;12.60;9.70;;;20.00;99.90;;;;;;4945820;29;20187;-80
2021/06/20 02:41:23;;;;;;;10.50;9.23;;;20.00;99.90;;;;;;4963225;29;20206;-80
2021/06/20 02:43:48;;;;;;;14.80;9.10;;;20.00;99.90;;;;;;4945719;29;20240;-80
2021/06/20 02:46:14;;;;;;;10.30;8.57;;;20.00;99.90;;;;;;4944722;29;20279;-80
2021/06/20 02:48:40;;;;;;;14.50;9.40;;;20.10;99.90;;;;;;4945167;29;20244;-80
2021/06/20 02:51:05;;;;;;;9.83;8.73;;;20.10;99.90;;;;;;4945129;29;20183;-80
2021/06/20 02:53:31;;;;;;;13.70;9.77;;;20.10;99.90;;;;;;4945457;29;20214;-80
2021/06/20 02:55:57;;;;;;;15.90;9.40;;;20.10;99.90;;;;;;4963565;29;20178;-80
2021/06/20 02:58:22;;;;;;;14.17;10.03;;;20.10;99.90;;;;;;4962976;29;20369;-80
2021/06/20 03:00:48;;;;;;;14.57;10.63;;;20.20;99.90;;;;;;4963758;29;20246;-80
2021/06/20 03:03:13;;;;;;;12.20;8.93;;;20.20;99.90;;;;;;4945822;29;20719;-80
2021/06/20 03:05:39;;;;;;;16.67;8.90;;;20.20;99.90;;;;;;4963154;29;20177;-80
2021/06/20 03:08:05;;;;;;;14.13;9.83;;;20.20;99.90;;;;;;4945499;29;20268;-80
2021/06/20 03:10:30;;;;;;;12.73;9.63;;;20.20;99.90;;;;;;4963436;29;20308;-80
2021/06/20 03:12:56;;;;;;;13.17;9.47;;;20.20;99.90;;;;;;4962961;29;20197;-80
2021/06/20 03:15:22;;;;;;;16.23;9.73;;;20.20;99.90;;;;;;4945876;29;20218;-80
2021/06/20 03:17:47;;;;;;;10.93;9.47;;;20.20;99.90;;;;;;4945089;29;20199;-80
2021/06/20 03:20:14;;;;;;;15.20;9.40;;;20.20;99.90;;;;;;4945920;29;20190;-81
2021/06/20 03:22:39;;;;;;;17.77;9.40;;;20.20;99.90;;;;;;4964152;29;20207;-80
2021/06/20 03:25:06;;;;;;;12.47;9.23;;;20.20;99.90;;;;;;4964023;29;20646;-80
2021/06/20 03:27:31;;;;;;;16.20;10.00;;;20.30;99.90;;;;;;4946104;29;20233;-80
2021/06/20 03:29:57;;;;;;;10.77;8.77;;;20.30;99.90;;;;;;4946160;29;20204;-80
2021/06/20 03:32:23;;;;;;;15.00;9.73;;;20.30;99.90;;;;;;4964565;28;20179;-80
2021/06/20 03:34:49;;;;;;;14.73;9.70;;;20.30;99.90;;;;;;4948147;29;20186;-80
2021/06/20 03:37:15;;;;;;;12.67;10.47;;;20.40;99.90;;;;;;4946645;29;20211;-80
2021/06/20 03:39:41;;;;;;;11.57;9.53;;;20.40;99.90;;;;;;4947860;29;20538;-80
2021/06/20 03:42:07;;;;;;;15.37;10.07;;;20.40;99.90;;;;;;4947653;29;20192;-81
2021/06/20 03:44:32;;;;;;;15.00;9.93;;;20.40;99.90;;;;;;4947125;29;20182;-80
2021/06/20 03:46:58;;;;;;;10.90;9.80;;;20.40;99.90;;;;;;4947895;29;20210;-81
2021/06/20 03:49:24;;;;;;;12.03;10.63;;;20.30;99.90;;;;;;4964968;29;20236;-81
2021/06/20 03:51:50;;;;;;;10.83;9.43;;;20.30;99.90;;;;;;4965327;29;20185;-81
2021/06/20 03:54:16;;;;;;;13.73;10.13;;;20.30;99.90;;;;;;4948422;29;20186;-81
2021/06/20 03:56:41;;;;;;;11.40;9.03;;;20.40;99.90;;;;;;4948400;29;20238;-81
2021/06/20 03:59:11;;;;;;;16.00;9.70;;;20.40;99.90;;;;;;4966081;29;20183;-81
2021/06/20 04:01:37;;;;;;;12.70;9.97;;;20.40;99.90;;;;;;4965549;29;20175;-81
2021/06/20 04:04:03;;;;;;;14.17;9.43;;;20.40;99.90;;;;;;4952143;29;20195;-80
2021/06/20 04:06:29;;;;;;;12.37;9.20;;;20.50;99.90;;;;;;4967920;29;20380;-80
2021/06/20 04:08:55;;;;;;;10.80;8.37;;;20.50;99.90;;;;;;4967643;29;20694;-81
2021/06/20 04:11:20;;;;;;;12.60;9.07;;;20.60;99.90;;;;;;4958607;29;20202;-80
2021/06/20 04:13:46;;;;;;;14.60;8.33;;;20.80;99.90;;;;;;4955742;29;20232;-80
2021/06/20 04:16:12;;;;;;;10.00;8.07;;;21.00;99.90;;;;;;4961680;29;20169;-80
2021/06/20 04:18:37;;;;;;;9.47;8.47;;;21.10;99.90;;;;;;4961013;29;20205;-80
2021/06/20 04:21:03;;;;;;;14.73;8.83;;;21.30;99.90;;;;;;4943667;29;20236;-80
2021/06/20 04:23:29;;;;;;;12.83;8.53;;;21.40;99.90;;;;;;4962015;29;20591;-80
2021/06/20 04:25:54;;;;;;;13.13;8.03;;;21.50;99.90;;;;;;4961793;29;20189;-80
2021/06/20 04:28:21;;;;;;;12.67;8.30;;;21.50;99.90;;;;;;4962489;29;20268;-80
2021/06/20 04:30:52;;;;;;;15.93;8.20;;;21.50;99.90;;;;;;4961178;29;20177;-80
2021/06/20 04:33:18;;;;;;;12.10;8.83;;;21.60;99.90;;;;;;4943741;29;20173;-80
2021/06/20 04:35:44;;;;;;;15.17;8.87;;;21.60;99.90;;;;;;4961544;29;20201;-80
2021/06/20 04:38:09;;;;;;;15.73;9.00;;;21.70;99.90;;;;;;4961983;29;20197;-80
2021/06/20 04:40:35;;;;;;;15.30;9.80;;;21.70;99.90;;;;;;4942948;29;20182;-80
2021/06/20 04:43:07;;;;;;;10.57;9.13;;;21.80;99.90;;;;;;4963033;28;20208;-80
2021/06/20 04:45:33;;;;;;;18.17;9.67;;;21.70;99.90;;;;;;4947548;29;20209;-80
2021/06/20 04:47:59;;;;;;;16.97;8.87;;;21.70;99.90;;;;;;4965154;29;20197;-80
2021/06/20 04:50:24;;;;;;;14.80;8.87;;;21.70;99.90;;;;;;4947104;29;20188;-80
2021/06/20 04:52:50;;;;;;;17.70;9.03;;;21.70;99.90;;;;;;4965297;29;20252;-80
2021/06/20 04:55:16;;;;;;;15.10;9.27;;;21.70;99.90;;;;;;4947580;29;20686;-80
2021/06/20 04:57:41;;;;;;;18.30;9.53;;;21.80;99.90;;;;;;4965276;29;20204;-80
2021/06/20 05:00:09;;;;;;;13.00;9.07;;;21.80;99.90;;;;;;4946823;29;20204;-79
2021/06/20 05:02:35;;;;;;;10.53;8.47;;;22.00;99.90;;;;;;4946337;29;20662;-80
2021/06/20 05:05:01;;;;;;;16.20;8.67;;;22.00;99.90;;;;;;4948629;29;20189;-80
2021/06/20 05:07:27;;;;;;;17.30;9.43;;;22.10;99.90;;;;;;4967072;29;20729;-80
2021/06/20 05:09:53;;;;;;;14.63;9.63;;;22.10;99.90;;;;;;4965526;29;20208;-80
2021/06/20 05:12:18;;;;;;;15.67;9.77;;;22.20;99.90;;;;;;4949863;29;20662;-80
2021/06/20 05:14:46;;;;;;;14.07;9.30;;;22.20;99.90;;;;;;4948978;29;20207;-79
2021/06/20 05:17:13;;;;;;;13.50;10.23;;;22.20;99.90;;;;;;4949104;29;20224;-80
2021/06/20 05:19:39;;;;;;;13.77;9.53;;;22.20;99.90;;;;;;4964856;29;20189;-79
2021/06/20 05:22:05;;;;;;;16.17;10.13;;;22.20;99.90;;;;;;4964264;29;20181;-79
2021/06/20 05:24:31;;;;;;;19.23;9.87;;;22.20;99.90;;;;;;4949461;29;20682;-79
2021/06/20 05:26:57;;;;;;;16.60;9.93;;;22.10;99.90;;;;;;4967296;29;20229;-80
2021/06/20 05:29:22;;;;;;;20.47;9.87;;;22.10;99.90;;;;;;4964437;29;20209;-80
2021/06/20 05:31:48;;;;;;;17.40;10.10;;;22.10;99.90;;;;;;4947289;29;20191;-80
2021/06/20 05:34:14;;;;;;;18.20;10.00;;;22.00;99.90;;;;;;4965413;29;20189;-79
2021/06/20 05:36:40;;;;;;;18.70;9.90;;;22.00;99.90;;;;;;4965966;29;20197;-79
2021/06/20 05:39:06;;;;;;;12.43;9.20;;;22.00;99.90;;;;;;4948066;29;20248;-79
2021/06/20 05:41:32;;;;;;;15.83;9.83;;;22.00;99.90;;;;;;4948394;29;20247;-79
2021/06/20 05:43:58;;;;;;;15.43;10.03;;;21.90;99.90;;;;;;4966527;29;20181;-80
2021/06/20 05:46:25;;;;;;;17.50;9.80;;;21.90;99.90;;;;;;4949423;29;20557;-80
2021/06/20 05:48:51;;;;;;;16.67;9.13;;;21.80;99.90;;;;;;4965195;29;20223;-79
2021/06/20 05:51:17;;;;;;;20.83;9.70;;;21.80;99.90;;;;;;4947523;29;20191;-80
2021/06/20 05:53:43;;;;;;;19.87;10.07;;;21.80;99.90;;;;;;4965259;28;20177;-79
2021/06/20 05:56:09;;;;;;;17.30;9.03;;;21.80;99.90;;;;;;4948408;29;20211;-80
2021/06/20 05:58:35;;;;;;;17.57;9.23;;;21.80;99.90;;;;;;4948954;29;20215;-79
2021/06/20 06:01:00;;;;;;;21.40;8.77;;;21.70;99.90;;;;;;4965906;29;20239;-80
2021/06/20 06:03:26;;;;;;;21.20;9.07;;;21.70;99.90;;;;;;4947508;29;20181;-80
2021/06/20 06:05:52;;;;;;;21.83;8.40;;;21.70;99.90;;;;;;4965919;29;20182;-79
2021/06/20 06:08:18;;;;;;;20.47;9.13;;;21.70;99.90;;;;;;4965709;29;20232;-80
2021/06/20 06:10:43;;;;;;;20.80;8.23;;;21.70;99.90;;;;;;4964591;29;20204;-79
2021/06/20 06:13:09;;;;;;;21.90;8.50;;;21.70;99.90;;;;;;4964142;29;20176;-79
2021/06/20 06:15:35;;;;;;;21.43;7.77;;;21.70;99.90;;;;;;4966444;29;20601;-80
2021/06/20 06:18:01;;;;;;;18.17;7.63;;;21.80;99.90;;;;;;4966137;29;20195;-79
2021/06/20 06:20:28;;;;;;;18.33;8.27;;;21.80;99.90;;;;;;4965225;29;20180;-79
2021/06/20 06:22:55;;;;;;;19.30;7.70;;;21.80;99.90;;;;;;4965358;29;20184;-78
2021/06/20 06:25:21;;;;;;;22.03;8.33;;;21.80;99.90;;;;;;4947407;29;20188;-78
2021/06/20 06:27:48;;;;;;;16.70;7.20;;;21.70;99.90;;;;;;4947561;29;20207;-78
2021/06/20 06:30:14;;;;;;;16.23;8.03;;;21.70;99.90;;;;;;4965156;29;20670;-78
2021/06/20 06:32:42;;;;;;;27.90;7.87;;;21.70;99.90;;;;;;4964933;29;20242;-80
2021/06/20 06:35:08;;;;;;;26.03;7.97;;;21.80;99.90;;;;;;4948286;29;20209;-80
2021/06/20 06:37:35;;;;;;;17.13;7.53;;;21.80;99.90;;;;;;4947531;29;20255;-80
2021/06/20 06:40:00;;;;;;;21.57;7.20;;;21.70;99.90;;;;;;4966746;29;20238;-80
2021/06/20 06:42:26;;;;;;;25.30;7.97;;;21.80;99.90;;;;;;4948038;29;20182;-80
2021/06/20 06:44:53;;;;;;;15.23;7.43;;;21.90;99.90;;;;;;4948312;29;20271;-80
2021/06/20 06:47:18;;;;;;;23.13;8.37;;;22.00;99.90;;;;;;4965866;29;20221;-80
2021/06/20 06:49:44;;;;;;;17.73;7.87;;;22.00;99.90;;;;;;4948066;29;20227;-80
2021/06/20 06:52:10;;;;;;;23.10;8.57;;;22.10;99.90;;;;;;4966103;29;20264;-80
2021/06/20 06:54:36;;;;;;;12.70;7.20;;;22.10;99.90;;;;;;4966191;29;20175;-80
2021/06/20 06:57:01;;;;;;;18.30;7.47;;;22.10;99.90;;;;;;4965571;29;20200;-80
2021/06/20 06:59:27;;;;;;;18.57;6.03;;;22.20;99.90;;;;;;4965756;29;20203;-80
2021/06/20 07:01:53;;;;;;;19.10;5.37;;;22.20;99.90;;;;;;4948513;29;20593;-80
2021/06/20 07:04:18;;;;;;;16.73;5.10;;;22.30;99.90;;;;;;4970435;29;20184;-80
2021/06/20 07:06:44;;;;;;;18.97;5.40;;;22.30;99.90;;;;;;4974172;28;20205;-80
2021/06/20 07:09:10;;;;;;;13.77;5.47;;;22.30;99.90;;;;;;4964546;29;20208;-81
2021/06/20 07:11:36;;;;;;;16.03;5.83;;;22.30;99.90;;;;;;4946078;29;20654;-81
2021/06/20 07:14:02;;;;;;;18.30;6.27;;;22.30;99.90;;;;;;4963533;29;20244;-81
2021/06/20 07:16:27;;;;;;;20.93;6.73;;;22.20;99.90;;;;;;4963684;29;20180;-81
2021/06/20 07:18:53;;;;;;;19.77;6.63;;;22.10;99.90;;;;;;4962862;29;20173;-78
2021/06/20 07:21:19;;;;;;;17.67;6.37;;;22.00;99.90;;;;;;4945689;29;20177;-79
2021/06/20 07:23:45;;;;;;;19.00;6.40;;;22.00;99.90;;;;;;4944455;29;20180;-80
2021/06/20 07:26:11;;;;;;;16.47;6.60;;;22.00;99.90;;;;;;4961730;29;20520;-78
2021/06/20 07:28:43;;;;;;;21.83;6.60;;;22.10;99.90;;;;;;5132752;27;20308;-81
2021/06/20 07:31:09;;;;;;;17.07;7.87;;;22.20;99.90;;;;;;5117190;28;20532;-80
2021/06/20 07:33:34;;;;;;;14.40;6.53;;;22.40;99.90;;;;;;5117368;28;20159;-80
2021/06/20 07:36:00;;;;;;;14.83;6.47;;;22.50;99.90;;;;;;5116882;28;20175;-81
2021/06/20 07:38:26;;;;;;;15.80;6.23;;;22.60;99.90;;;;;;5116599;28;20539;-81
2021/06/20 07:40:52;;;;;;;14.80;5.47;;;22.70;99.90;;;;;;5117076;28;20182;-81
2021/06/20 07:43:21;;;;;;;18.13;6.17;;;23.00;99.90;;;;;;5116041;28;20187;-81
2021/06/20 07:45:47;;;;;;;17.87;5.87;;;23.10;99.90;;;;;;5116055;28;20175;-81
2021/06/20 07:48:13;;;;;;;18.87;6.23;;;23.30;99.90;;;;;;5116375;28;20219;-81
2021/06/20 07:50:39;;;;;;;13.70;5.80;;;23.40;99.90;;;;;;5117455;28;20222;-81
2021/06/20 07:53:05;;;;;;;14.70;6.43;;;23.50;99.90;;;;;;5117934;28;20174;-81
2021/06/20 07:55:30;;;;;;;15.27;6.87;;;23.60;99.90;;;;;;5117567;28;20168;-81
2021/06/20 07:57:56;;;;;;;25.40;7.40;;;23.70;99.90;;;;;;5117890;28;20195;-81
2021/06/20 08:00:22;;;;;;;19.90;6.80;;;23.70;99.90;;;;;;5117368;28;20182;-81
2021/06/20 08:02:48;;;;;;;23.27;7.50;;;23.80;99.90;;;;;;5117605;28;20609;-81
2021/06/20 08:05:15;;;;;;;21.83;8.13;;;23.80;99.90;;;;;;5118220;28;20172;-81
2021/06/20 08:07:41;;;;;;;18.60;7.90;;;23.80;99.90;;;;;;5118058;28;20196;-81
2021/06/20 08:10:07;;;;;;;18.37;8.13;;;23.80;99.90;;;;;;5117982;28;20167;-81
2021/06/20 08:12:33;;;;;;;19.87;8.67;;;23.80;99.90;;;;;;5115618;28;20224;-79
2021/06/20 08:14:59;;;;;;;18.80;7.87;;;23.80;99.90;;;;;;5114369;28;20239;-79
2021/06/20 08:17:25;;;;;;;17.93;8.57;;;23.80;99.90;;;;;;5113824;28;20226;-79
2021/06/20 08:19:51;;;;;;;17.30;8.27;;;23.80;99.90;;;;;;5113755;28;20235;-77
2021/06/20 08:22:18;;;;;;;19.03;8.47;;;23.80;99.90;;;;;;5112887;28;20176;-77
2021/06/20 08:24:44;;;;;;;17.47;8.87;;;23.80;99.90;;;;;;5113143;28;20186;-77
2021/06/20 08:27:11;;;;;;;17.93;7.93;;;23.80;99.90;;;;;;5112818;28;20206;-77
2021/06/20 08:29:37;;;;;;;21.00;8.17;;;24.00;99.90;;;;;;5112924;28;20171;-77
2021/06/20 08:32:03;;;;;;;27.13;8.37;;;24.20;99.90;;;;;;5111877;28;20664;-78
2021/06/20 08:34:30;;;;;;;17.13;7.50;;;24.60;99.90;;;;;;5114810;28;20164;-78
2021/06/20 08:36:57;;;;;;;20.07;7.73;;;24.90;99.90;;;;;;5114601;28;20294;-76
2021/06/20 08:39:23;;;;;;;24.90;8.30;;;25.30;99.90;;;;;;5107079;28;20182;-77
2021/06/20 08:41:48;;;;;;;18.67;6.70;;;25.50;99.90;;;;;;5097099;28;20184;-77
2021/06/20 08:44:19;;;;;;;16.17;7.67;;;25.50;99.90;;;;;;5097182;28;20168;-76
2021/06/20 08:46:46;;;;;;;18.33;7.23;;;25.20;99.90;;;;;;5098124;28;20601;-78
2021/06/20 08:49:12;;;;;;;18.40;7.07;;;25.10;99.90;;;;;;5099349;28;20521;-78
2021/06/20 08:51:40;;;;;;;17.47;7.13;;;25.20;99.90;;;;;;5098256;28;20180;-78
2021/06/20 08:54:06;;;;;;;23.20;7.97;;;25.20;99.90;;;;;;5098382;28;20248;-77
2021/06/20 08:56:32;;;;;;;13.03;6.87;;;25.40;99.90;;;;;;5097980;28;20186;-78
2021/06/20 08:58:58;;;;;;;19.63;8.20;;;25.40;99.90;;;;;;5100756;28;20184;-79
2021/06/20 09:01:24;;;;;;;18.37;8.70;;;25.50;99.90;;;;;;5096449;28;20181;-78
2021/06/20 09:03:50;;;;;;;15.27;8.03;;;25.70;99.90;;;;;;5099308;28;20689;-78
2021/06/20 09:06:18;;;;;;;14.80;7.00;;;25.90;99.90;;;;;;5099177;28;20181;-79
2021/06/20 09:08:59;;;;;;;23.23;6.67;;;26.10;99.90;;;;;;5100115;28;20176;-78
2021/06/20 09:11:28;;;;;;;19.23;6.73;;;26.10;99.90;;;;;;5099481;28;20167;-79
2021/06/20 09:14:16;;;;;;;16.27;5.73;;;25.90;99.90;;;;;;5099549;28;20250;-79
2021/06/20 09:16:52;;;;;;;21.10;6.27;;;26.00;99.90;;;;;;5099748;28;20197;-79
2021/06/20 09:19:30;;;;;;;19.87;6.37;;;26.00;99.90;;;;;;5098174;28;20184;-78
2021/06/20 09:21:57;;;;;;;23.97;6.20;;;25.80;99.90;;;;;;5099480;28;20195;-79
2021/06/20 09:24:23;;;;;;;17.67;5.27;;;26.00;99.90;;;;;;5099827;28;20174;-79
2021/06/20 09:26:54;;;;;;;23.20;6.87;;;26.00;99.90;;;;;;5097793;28;20225;-78
2021/06/20 09:29:38;;;;;;;15.70;6.07;;;26.20;99.90;;;;;;5099479;28;20167;-78
2021/06/20 09:32:09;;;;;;;19.10;5.90;;;26.40;99.90;;;;;;5098590;28;20551;-79
2021/06/20 09:34:46;;;;;;;28.00;7.07;;;26.60;99.90;;;;;;5099560;28;20171;-79
2021/06/20 09:37:13;;;;;;;20.83;5.80;;;26.80;99.90;;;;;;5099865;28;20241;-80
2021/06/20 09:39:38;;;;;;;17.97;6.13;;;26.90;99.90;;;;;;5098825;28;20183;-77
2021/06/20 09:42:10;;;;;;;18.00;6.00;;;26.90;99.90;;;;;;5097887;28;20247;-78
2021/06/20 09:44:40;;;;;;;16.43;5.63;;;26.90;99.90;;;;;;5096765;28;20283;-78
2021/06/20 09:47:08;;;;;;;20.63;5.67;;;26.90;99.90;;;;;;5095845;28;20625;-78
2021/06/20 09:49:35;;;;;;;23.17;6.93;;;26.70;99.90;;;;;;5097700;28;20688;-78
2021/06/20 09:52:02;;;;;;;21.30;6.60;;;26.60;99.90;;;;;;5097864;28;20572;-78
2021/06/20 09:54:33;;;;;;;17.93;5.10;;;26.50;99.90;;;;;;5098405;28;20218;-78
2021/06/20 09:56:59;;;;;;;23.50;7.00;;;26.40;99.90;;;;;;5099788;28;20672;-79
2021/06/20 09:59:28;;;;;;;22.20;5.93;;;26.40;99.90;;;;;;5099530;28;20169;-79
2021/06/20 10:01:53;;;;;;;12.20;5.50;;;26.20;99.90;;;;;;5099736;28;20655;-79
2021/06/20 10:04:19;;;;;;;19.17;6.20;;;26.00;99.90;;;;;;5100164;28;20179;-78
2021/06/20 10:06:45;;;;;;;17.63;6.00;;;26.00;99.90;;;;;;5099071;28;20198;-78
2021/06/20 10:09:11;;;;;;;16.97;6.10;;;26.00;99.90;;;;;;5098209;28;20178;-79
2021/06/20 10:11:36;;;;;;;21.47;5.93;;;26.00;99.90;;;;;;5099718;28;20283;-79
2021/06/20 10:14:02;;;;;;;18.03;5.70;;;26.00;99.90;;;;;;5099772;28;20172;-78
2021/06/20 10:16:30;;;;;;;14.67;5.27;;;26.20;99.90;;;;;;5097717;28;20180;-78
2021/06/20 10:19:15;;;;;;;21.67;5.77;;;26.30;99.90;;;;;;5098467;28;20266;-78
2021/06/20 10:21:43;;;;;;;20.40;5.67;;;26.50;99.90;;;;;;5100458;28;20529;-78
2021/06/20 10:24:19;;;;;;;18.53;4.93;;;26.50;99.90;;;;;;5099065;28;20161;-78
2021/06/20 10:26:51;;;;;;;21.43;6.13;;;26.50;99.90;;;;;;5098452;28;20214;-79
2021/06/20 10:29:22;;;;;;;22.27;5.53;;;26.50;99.90;;;;;;5100068;28;20187;-78
2021/06/20 10:31:49;;;;;;;15.67;5.83;;;26.70;99.90;;;;;;5099923;28;20155;-78
2021/06/20 10:34:23;;;;;;;16.50;4.83;;;26.70;99.90;;;;;;5096844;28;20209;-79
2021/06/20 10:36:55;;;;;;;17.60;5.10;;;26.60;99.90;;;;;;5099724;28;20194;-78
2021/06/20 10:39:21;;;;;;;17.93;5.67;;;26.40;99.90;;;;;;5097835;28;20189;-79
2021/06/20 10:41:47;;;;;;;20.40;5.20;;;26.20;99.90;;;;;;5098547;28;20222;-78
2021/06/20 10:44:13;;;;;;;17.37;4.90;;;26.10;99.90;;;;;;5099465;28;20191;-78
2021/06/20 10:46:41;;;;;;;15.83;5.00;;;26.00;99.90;;;;;;5097785;28;20256;-78
2021/06/20 10:49:18;;;;;;;13.20;5.13;;;25.90;99.90;;;;;;5098649;28;20168;-78
2021/06/20 10:51:44;;;;;;;13.37;4.27;;;25.80;99.90;;;;;;5098566;28;20221;-79
2021/06/20 10:54:28;;;;;;;15.47;4.63;;;25.80;99.90;;;;;;5098017;28;20306;-79
2021/06/20 10:57:01;;;;;;;14.90;4.43;;;25.70;99.90;;;;;;5097425;28;20196;-78
2021/06/20 10:59:27;;;;;;;16.90;4.03;;;25.60;99.90;;;;;;5096748;28;20177;-78
2021/06/20 11:01:53;;;;;;;18.13;4.63;;;25.60;99.90;;;;;;5098322;28;20169;-79
2021/06/20 11:04:19;;;;;;;15.47;4.73;;;25.70;99.90;;;;;;5096900;28;20188;-79
2021/06/20 11:06:57;;;;;;;20.43;4.77;;;25.80;99.90;;;;;;5097301;28;20205;-81
2021/06/20 11:09:35;;;;;;;13.47;4.10;;;25.90;99.90;;;;;;5097674;28;20184;-80
2021/06/20 11:12:05;;;;;;;18.37;4.63;;;26.00;99.90;;;;;;5098730;28;20172;-80
2021/06/20 11:14:41;;;;;;;10.27;3.77;;;26.10;99.90;;;;;;5097058;28;20180;-79
2021/06/20 11:17:08;;;;;;;19.57;4.90;;;26.20;99.90;;;;;;5096286;28;20198;-80
2021/06/20 11:19:34;;;;;;;14.50;4.37;;;26.10;99.90;;;;;;5098105;28;20201;-79
2021/06/20 11:22:03;;;;;;;16.73;4.40;;;26.10;99.90;;;;;;5097699;28;20175;-79
2021/06/20 11:24:30;;;;;;;13.30;4.27;;;26.30;99.90;;;;;;5095471;28;20573;-79
2021/06/20 11:27:04;;;;;;;14.87;4.23;;;26.40;99.90;;;;;;5097113;28;20297;-80
2021/06/20 11:29:44;;;;;;;13.83;3.63;;;26.30;99.90;;;;;;5099319;28;20152;-80
2021/06/20 11:32:32;;;;;;;12.17;4.13;;;26.30;99.90;;;;;;5099713;28;20158;-81
2021/06/20 11:35:04;;;;;;;10.27;3.80;;;26.20;99.90;;;;;;5097873;28;20169;-80
2021/06/20 11:37:30;;;;;;;18.90;4.37;;;26.10;99.90;;;;;;5095626;28;20193;-79
2021/06/20 11:40:00;;;;;;;13.73;5.20;;;26.10;99.90;;;;;;5094611;28;20189;-79
2021/06/20 11:42:29;;;;;;;16.20;4.67;;;26.20;99.90;;;;;;5096454;28;20163;-79
2021/06/20 11:45:05;;;;;;;20.77;6.00;;;26.20;99.90;;;;;;5095425;28;20181;-77
2021/06/20 11:47:51;;;;;;;17.57;4.17;;;26.20;99.90;;;;;;5093496;28;20697;-78
2021/06/20 11:50:19;;;;;;;14.07;4.33;;;26.20;99.90;;;;;;5095063;28;20157;-78
2021/06/20 11:52:49;;;;;;;13.13;4.63;;;26.20;99.90;;;;;;5096204;28;20199;-79
2021/06/20 11:55:22;;;;;;;14.00;4.77;;;26.20;99.90;;;;;;5094818;28;20168;-77
2021/06/20 11:57:49;;;;;;;18.07;4.53;;;26.30;99.90;;;;;;5095101;28;20204;-79
2021/06/20 12:00:19;;;;;;;17.13;4.27;;;26.40;99.90;;;;;;5094178;28;20177;-78
2021/06/20 12:02:56;;;;;;;13.37;4.63;;;26.50;99.90;;;;;;5094795;28;20200;-78
2021/06/20 12:05:22;;;;;;;28.57;4.93;;;26.70;99.90;;;;;;5094054;28;20193;-78
2021/06/20 12:07:49;;;;;;;16.47;4.40;;;26.80;99.90;;;;;;5094110;28;20559;-79
2021/06/20 12:10:18;;;;;;;15.67;4.73;;;26.90;99.90;;;;;;5094025;28;20209;-81
2021/06/20 12:12:44;;;;;;;19.97;5.10;;;26.90;99.90;;;;;;5099741;28;20511;-81
2021/06/20 12:15:10;;;;;;;13.30;4.40;;;26.90;99.90;;;;;;5099439;28;20176;-78
2021/06/20 12:17:38;;;;;;;18.97;5.67;;;26.90;99.90;;;;;;5097540;28;20222;-78
2021/06/20 12:20:06;;;;;;;15.23;5.23;;;26.80;99.90;;;;;;5102449;28;20588;-79
2021/06/20 12:22:31;;;;;;;15.70;4.77;;;26.70;99.90;;;;;;5104328;28;20179;-78
2021/06/20 12:25:01;;;;;;;18.80;5.20;;;26.70;99.90;;;;;;5104040;28;20176;-78
2021/06/20 12:27:38;;;;;;;16.97;4.87;;;26.70;99.90;;;;;;5101415;28;20222;-78
2021/06/20 12:30:16;;;;;;;16.37;5.33;;;26.80;99.90;;;;;;5102110;28;20266;-78
2021/06/20 12:32:44;;;;;;;17.33;5.67;;;26.80;99.90;;;;;;5102083;28;20653;-78
2021/06/20 12:35:25;;;;;;;15.53;5.73;;;27.10;99.90;;;;;;5104239;28;20179;-79
2021/06/20 12:37:52;;;;;;;11.37;5.07;;;28.40;99.90;;;;;;5102489;28;20208;-81